sensor_id;sensor_type;location;lat;lon;timestamp;pressure;altitude;pressure_sealevel;temperature;humidity
61205;BME280;47068;55.780;37.520;2023-05-09T00:02:25;101446.97;;;5.32;55.18
61205;BME280;47068;55.780;37.520;2023-05-09T00:04:50;101444.06;;;5.21;55.82
61205;BME280;47068;55.780;37.520;2023-05-09T00:07:16;101458.88;;;5.23;56.18
61205;BME280;47068;55.780;37.520;2023-05-09T00:09:41;101458.19;;;5.20;56.40
61205;BME280;47068;55.780;37.520;2023-05-09T00:12:07;101461.00;;;5.17;56.57
61205;BME280;47068;55.780;37.520;2023-05-09T00:14:33;101457.44;;;5.18;56.98
61205;BME280;47068;55.780;37.520;2023-05-09T00:16:58;101448.47;;;5.20;56.27
61205;BME280;47068;55.780;37.520;2023-05-09T00:19:24;101460.81;;;5.20;56.73
61205;BME280;47068;55.780;37.520;2023-05-09T00:21:50;101441.88;;;4.97;56.75
61205;BME280;47068;55.780;37.520;2023-05-09T00:24:16;101460.59;;;5.08;56.58
61205;BME280;47068;55.780;37.520;2023-05-09T00:26:41;101458.97;;;5.06;56.00
61205;BME280;47068;55.780;37.520;2023-05-09T00:29:07;101471.72;;;5.13;56.40
61205;BME280;47068;55.780;37.520;2023-05-09T00:31:32;101468.16;;;5.14;56.38
61205;BME280;47068;55.780;37.520;2023-05-09T00:33:58;101455.31;;;5.08;56.10
61205;BME280;47068;55.780;37.520;2023-05-09T00:36:23;101443.56;;;4.98;56.30
61205;BME280;47068;55.780;37.520;2023-05-09T00:38:49;101470.78;;;5.14;56.25
61205;BME280;47068;55.780;37.520;2023-05-09T00:41:15;101461.44;;;5.09;56.02
61205;BME280;47068;55.780;37.520;2023-05-09T00:43:40;101467.72;;;5.06;55.82
61205;BME280;47068;55.780;37.520;2023-05-09T00:46:06;101464.84;;;4.95;55.78
61205;BME280;47068;55.780;37.520;2023-05-09T00:48:31;101446.28;;;4.81;55.71
61205;BME280;47068;55.780;37.520;2023-05-09T00:50:57;101470.63;;;4.86;56.44
61205;BME280;47068;55.780;37.520;2023-05-09T00:53:23;101478.63;;;4.85;56.69
61205;BME280;47068;55.780;37.520;2023-05-09T00:55:48;101472.59;;;4.83;56.74
61205;BME280;47068;55.780;37.520;2023-05-09T00:58:14;101464.84;;;4.80;57.21
61205;BME280;47068;55.780;37.520;2023-05-09T01:00:40;101473.84;;;4.75;57.31
61205;BME280;47068;55.780;37.520;2023-05-09T01:03:06;101469.00;;;4.68;57.35
61205;BME280;47068;55.780;37.520;2023-05-09T01:05:41;101470.53;;;4.72;57.68
61205;BME280;47068;55.780;37.520;2023-05-09T01:11:02;101472.81;;;4.62;58.19
61205;BME280;47068;55.780;37.520;2023-05-09T01:13:40;101473.16;;;4.56;58.43
61205;BME280;47068;55.780;37.520;2023-05-09T01:19:51;101476.19;;;4.49;58.75
61205;BME280;47068;55.780;37.520;2023-05-09T01:21:49;101464.19;;;4.43;58.92
61205;BME280;47068;55.780;37.520;2023-05-09T01:29:46;101463.28;;;4.60;58.99
61205;BME280;47068;55.780;37.520;2023-05-09T01:32:26;101471.34;;;4.57;58.89
61205;BME280;47068;55.780;37.520;2023-05-09T01:34:54;101479.34;;;4.55;58.97
61205;BME280;47068;55.780;37.520;2023-05-09T01:37:32;101470.59;;;4.55;58.97
61205;BME280;47068;55.780;37.520;2023-05-09T01:40:03;101475.69;;;4.58;58.76
61205;BME280;47068;55.780;37.520;2023-05-09T01:42:46;101459.59;;;4.47;58.71
61205;BME280;47068;55.780;37.520;2023-05-09T01:45:14;101473.84;;;4.60;59.04
61205;BME280;47068;55.780;37.520;2023-05-09T01:47:41;101486.50;;;4.53;59.40
61205;BME280;47068;55.780;37.520;2023-05-09T01:50:10;101482.56;;;4.45;59.11
61205;BME280;47068;55.780;37.520;2023-05-09T01:52:37;101482.94;;;4.37;59.41
61205;BME280;47068;55.780;37.520;2023-05-09T01:55:05;101474.50;;;4.30;59.66
61205;BME280;47068;55.780;37.520;2023-05-09T01:57:32;101478.19;;;4.44;59.53
61205;BME280;47068;55.780;37.520;2023-05-09T01:59:58;101469.38;;;4.45;59.46
61205;BME280;47068;55.780;37.520;2023-05-09T02:02:26;101472.31;;;4.56;59.19
61205;BME280;47068;55.780;37.520;2023-05-09T02:04:56;101476.38;;;4.61;59.24
61205;BME280;47068;55.780;37.520;2023-05-09T02:07:22;101476.19;;;4.64;59.10
61205;BME280;47068;55.780;37.520;2023-05-09T02:09:49;101473.84;;;4.60;59.61
61205;BME280;47068;55.780;37.520;2023-05-09T02:12:18;101481.81;;;4.58;59.44
61205;BME280;47068;55.780;37.520;2023-05-09T02:14:44;101480.22;;;4.56;59.56
61205;BME280;47068;55.780;37.520;2023-05-09T02:17:09;101478.72;;;4.50;59.51
61205;BME280;47068;55.780;37.520;2023-05-09T02:19:41;101484.19;;;4.47;59.52
61205;BME280;47068;55.780;37.520;2023-05-09T02:22:07;101490.47;;;4.45;59.76
61205;BME280;47068;55.780;37.520;2023-05-09T02:24:32;101482.56;;;4.45;59.89
61205;BME280;47068;55.780;37.520;2023-05-09T02:26:59;101471.47;;;4.38;59.99
61205;BME280;47068;55.780;37.520;2023-05-09T02:29:31;101488.59;;;4.47;60.02
61205;BME280;47068;55.780;37.520;2023-05-09T02:32:08;101469.25;;;4.30;60.18
61205;BME280;47068;55.780;37.520;2023-05-09T02:34:36;101489.59;;;4.44;60.18
61205;BME280;47068;55.780;37.520;2023-05-09T02:37:03;101493.88;;;4.47;60.33
61205;BME280;47068;55.780;37.520;2023-05-09T02:39:30;101472.94;;;4.44;60.36
61205;BME280;47068;55.780;37.520;2023-05-09T02:41:55;101486.75;;;4.64;60.21
61205;BME280;47068;55.780;37.520;2023-05-09T02:44:20;101495.03;;;4.74;60.15
61205;BME280;47068;55.780;37.520;2023-05-09T02:46:46;101485.41;;;4.73;60.33
61205;BME280;47068;55.780;37.520;2023-05-09T02:49:11;101499.19;;;4.78;60.14
61205;BME280;47068;55.780;37.520;2023-05-09T02:51:37;101484.06;;;4.82;60.13
61205;BME280;47068;55.780;37.520;2023-05-09T02:54:03;101504.34;;;4.97;60.25
61205;BME280;47068;55.780;37.520;2023-05-09T02:56:28;101472.47;;;4.84;59.67
61205;BME280;47068;55.780;37.520;2023-05-09T02:58:54;101491.16;;;4.97;59.83
61205;BME280;47068;55.780;37.520;2023-05-09T03:01:19;101489.19;;;5.00;59.87
61205;BME280;47068;55.780;37.520;2023-05-09T03:03:45;101505.28;;;5.11;59.85
61205;BME280;47068;55.780;37.520;2023-05-09T03:06:10;101492.25;;;5.08;59.89
61205;BME280;47068;55.780;37.520;2023-05-09T03:08:36;101500.75;;;5.13;59.98
61205;BME280;47068;55.780;37.520;2023-05-09T03:11:01;101495.13;;;5.20;59.57
61205;BME280;47068;55.780;37.520;2023-05-09T03:13:27;101501.88;;;5.25;59.61
61205;BME280;47068;55.780;37.520;2023-05-09T03:15:52;101482.72;;;5.22;59.71
61205;BME280;47068;55.780;37.520;2023-05-09T03:18:18;101503.81;;;5.37;60.06
61205;BME280;47068;55.780;37.520;2023-05-09T03:20:43;101502.78;;;5.40;59.80
61205;BME280;47068;55.780;37.520;2023-05-09T03:23:09;101503.47;;;5.43;59.69
61205;BME280;47068;55.780;37.520;2023-05-09T03:25:34;101509.25;;;5.50;59.33
61205;BME280;47068;55.780;37.520;2023-05-09T03:28:00;101509.75;;;5.57;59.21
61205;BME280;47068;55.780;37.520;2023-05-09T03:30:25;101497.31;;;5.59;58.47
61205;BME280;47068;55.780;37.520;2023-05-09T03:32:51;101504.50;;;5.86;58.18
61205;BME280;47068;55.780;37.520;2023-05-09T03:35:17;101509.47;;;6.07;57.22
61205;BME280;47068;55.780;37.520;2023-05-09T03:37:42;101497.31;;;6.18;56.20
61205;BME280;47068;55.780;37.520;2023-05-09T03:40:08;101500.75;;;6.35;55.81
61205;BME280;47068;55.780;37.520;2023-05-09T03:42:34;101512.00;;;6.66;55.24
61205;BME280;47068;55.780;37.520;2023-05-09T03:44:59;101510.09;;;6.83;55.13
61205;BME280;47068;55.780;37.520;2023-05-09T03:47:25;101519.75;;;6.98;54.50
61205;BME280;47068;55.780;37.520;2023-05-09T03:49:50;101513.66;;;7.10;53.68
61205;BME280;47068;55.780;37.520;2023-05-09T03:52:17;101508.97;;;7.28;52.89
61205;BME280;47068;55.780;37.520;2023-05-09T03:54:43;101506.50;;;7.39;51.74
61205;BME280;47068;55.780;37.520;2023-05-09T03:57:08;101510.28;;;7.62;51.21
61205;BME280;47068;55.780;37.520;2023-05-09T03:59:34;101512.78;;;7.77;50.28
61205;BME280;47068;55.780;37.520;2023-05-09T04:01:59;101516.72;;;7.84;50.38
61205;BME280;47068;55.780;37.520;2023-05-09T04:04:25;101521.31;;;7.95;49.68
61205;BME280;47068;55.780;37.520;2023-05-09T04:06:50;101522.28;;;8.07;49.99
61205;BME280;47068;55.780;37.520;2023-05-09T04:09:16;101508.09;;;8.20;49.67
61205;BME280;47068;55.780;37.520;2023-05-09T04:11:41;101516.94;;;8.34;48.90
61205;BME280;47068;55.780;37.520;2023-05-09T04:14:07;101508.56;;;8.40;48.83
61205;BME280;47068;55.780;37.520;2023-05-09T04:16:32;101508.25;;;8.69;48.27
61205;BME280;47068;55.780;37.520;2023-05-09T04:18:58;101513.28;;;8.98;47.96
61205;BME280;47068;55.780;37.520;2023-05-09T04:21:23;101517.88;;;9.20;47.82
61205;BME280;47068;55.780;37.520;2023-05-09T04:23:48;101527.59;;;9.68;46.73
61205;BME280;47068;55.780;37.520;2023-05-09T04:26:14;101515.31;;;10.13;46.08
61205;BME280;47068;55.780;37.520;2023-05-09T04:28:42;101513.69;;;10.23;45.46
61205;BME280;47068;55.780;37.520;2023-05-09T04:31:07;101512.22;;;10.19;44.79
61205;BME280;47068;55.780;37.520;2023-05-09T04:33:33;101490.53;;;10.13;44.86
61205;BME280;47068;55.780;37.520;2023-05-09T04:36:00;101506.97;;;10.42;44.34
61205;BME280;47068;55.780;37.520;2023-05-09T04:38:25;101512.53;;;10.72;43.39
61205;BME280;47068;55.780;37.520;2023-05-09T04:40:51;101521.81;;;11.33;42.16
61205;BME280;47068;55.780;37.520;2023-05-09T04:43:16;101505.03;;;12.69;39.22
61205;BME280;47068;55.780;37.520;2023-05-09T04:45:43;101508.81;;;13.27;34.89
61205;BME280;47068;55.780;37.520;2023-05-09T04:48:09;101507.16;;;13.64;34.76
61205;BME280;47068;55.780;37.520;2023-05-09T04:50:34;101507.72;;;14.06;33.91
61205;BME280;47068;55.780;37.520;2023-05-09T04:53:00;101507.44;;;14.00;31.24
61205;BME280;47068;55.780;37.520;2023-05-09T04:55:26;101507.19;;;13.93;32.35
61205;BME280;47068;55.780;37.520;2023-05-09T04:57:51;101492.34;;;14.18;30.81
61205;BME280;47068;55.780;37.520;2023-05-09T05:00:17;101495.91;;;15.02;29.45
61205;BME280;47068;55.780;37.520;2023-05-09T05:02:43;101496.03;;;15.73;27.68
61205;BME280;47068;55.780;37.520;2023-05-09T05:05:09;101500.69;;;16.76;27.13
61205;BME280;47068;55.780;37.520;2023-05-09T05:07:34;101494.25;;;17.53;25.62
61205;BME280;47068;55.780;37.520;2023-05-09T05:10:00;101490.28;;;17.89;24.68
61205;BME280;47068;55.780;37.520;2023-05-09T05:12:25;101495.81;;;17.80;25.55
61205;BME280;47068;55.780;37.520;2023-05-09T05:14:50;101493.97;;;17.88;25.65
61205;BME280;47068;55.780;37.520;2023-05-09T05:17:16;101472.00;;;19.11;24.12
61205;BME280;47068;55.780;37.520;2023-05-09T05:19:42;101494.41;;;19.96;21.48
61205;BME280;47068;55.780;37.520;2023-05-09T05:22:07;101487.69;;;20.67;22.15
61205;BME280;47068;55.780;37.520;2023-05-09T05:24:33;101494.19;;;21.95;21.41
61205;BME280;47068;55.780;37.520;2023-05-09T05:26:58;101487.00;;;22.86;20.39
61205;BME280;47068;55.780;37.520;2023-05-09T05:29:24;101490.50;;;23.28;20.27
61205;BME280;47068;55.780;37.520;2023-05-09T05:31:49;101488.56;;;23.76;18.47
61205;BME280;47068;55.780;37.520;2023-05-09T05:34:14;101470.59;;;24.08;17.45
61205;BME280;47068;55.780;37.520;2023-05-09T05:36:41;101480.19;;;24.56;16.25
61205;BME280;47068;55.780;37.520;2023-05-09T05:39:06;101480.69;;;24.27;15.87
61205;BME280;47068;55.780;37.520;2023-05-09T05:41:32;101482.59;;;23.39;16.98
61205;BME280;47068;55.780;37.520;2023-05-09T05:43:57;101462.84;;;23.04;17.45
61205;BME280;47068;55.780;37.520;2023-05-09T05:46:23;101471.28;;;22.47;16.61
61205;BME280;47068;55.780;37.520;2023-05-09T05:48:48;101477.59;;;21.98;17.71
61205;BME280;47068;55.780;37.520;2023-05-09T05:51:13;101469.81;;;21.74;17.78
61205;BME280;47068;55.780;37.520;2023-05-09T05:53:39;101469.88;;;21.23;16.70
61205;BME280;47068;55.780;37.520;2023-05-09T05:56:05;101470.50;;;20.60;17.75
61205;BME280;47068;55.780;37.520;2023-05-09T05:58:30;101468.34;;;20.56;18.80
61205;BME280;47068;55.780;37.520;2023-05-09T06:00:56;101469.56;;;20.82;19.37
61205;BME280;47068;55.780;37.520;2023-05-09T06:03:21;101472.75;;;20.86;18.27
61205;BME280;47068;55.780;37.520;2023-05-09T06:05:46;101465.13;;;21.11;17.19
61205;BME280;47068;55.780;37.520;2023-05-09T06:08:12;101471.66;;;21.31;16.25
61205;BME280;47068;55.780;37.520;2023-05-09T06:10:38;101445.25;;;21.76;16.58
61205;BME280;47068;55.780;37.520;2023-05-09T06:13:03;101457.19;;;22.65;14.76
61205;BME280;47068;55.780;37.520;2023-05-09T06:15:28;101464.44;;;23.40;14.20
61205;BME280;47068;55.780;37.520;2023-05-09T06:17:54;101458.91;;;24.40;13.22
61205;BME280;47068;55.780;37.520;2023-05-09T06:20:19;101452.03;;;27.07;12.49
61205;BME280;47068;55.780;37.520;2023-05-09T06:22:45;101441.72;;;30.37;11.02
61205;BME280;47068;55.780;37.520;2023-05-09T06:25:10;101439.19;;;32.77;9.65
61205;BME280;47068;55.780;37.520;2023-05-09T06:27:36;101435.63;;;34.95;8.39
61205;BME280;47068;55.780;37.520;2023-05-09T06:30:02;101436.81;;;36.35;7.01
61205;BME280;47068;55.780;37.520;2023-05-09T06:32:27;101432.63;;;36.08;6.79
61205;BME280;47068;55.780;37.520;2023-05-09T06:34:53;101430.59;;;36.90;6.64
61205;BME280;47068;55.780;37.520;2023-05-09T06:37:18;101420.72;;;38.24;6.33
61205;BME280;47068;55.780;37.520;2023-05-09T06:39:44;101423.06;;;39.35;5.13
61205;BME280;47068;55.780;37.520;2023-05-09T06:42:09;101422.72;;;40.26;4.76
61205;BME280;47068;55.780;37.520;2023-05-09T06:44:34;101421.00;;;40.38;4.73
61205;BME280;47068;55.780;37.520;2023-05-09T06:47:00;101413.66;;;40.20;4.43
61205;BME280;47068;55.780;37.520;2023-05-09T06:49:26;101419.53;;;36.66;6.32
61205;BME280;47068;55.780;37.520;2023-05-09T06:51:51;101410.66;;;31.46;8.87
61205;BME280;47068;55.780;37.520;2023-05-09T06:54:16;101397.97;;;32.08;8.64
61205;BME280;47068;55.780;37.520;2023-05-09T06:56:42;101389.59;;;35.87;6.53
61205;BME280;47068;55.780;37.520;2023-05-09T06:59:08;101400.34;;;39.19;5.93
61205;BME280;47068;55.780;37.520;2023-05-09T07:01:38;101395.66;;;41.95;4.63
61205;BME280;47068;55.780;37.520;2023-05-09T07:04:04;101401.63;;;43.32;3.80
61205;BME280;47068;55.780;37.520;2023-05-09T07:06:29;101391.25;;;44.10;2.93
61205;BME280;47068;55.780;37.520;2023-05-09T07:08:55;101387.63;;;44.70;3.27
61205;BME280;47068;55.780;37.520;2023-05-09T07:11:21;101395.13;;;44.79;3.15
61205;BME280;47068;55.780;37.520;2023-05-09T07:13:46;101384.84;;;45.66;2.83
61205;BME280;47068;55.780;37.520;2023-05-09T07:16:12;101385.19;;;46.75;2.68
61205;BME280;47068;55.780;37.520;2023-05-09T07:18:37;101369.84;;;46.91;2.08
61205;BME280;47068;55.780;37.520;2023-05-09T07:21:03;101376.28;;;47.08;1.98
61205;BME280;47068;55.780;37.520;2023-05-09T07:23:29;101375.84;;;46.55;2.07
61205;BME280;47068;55.780;37.520;2023-05-09T07:25:55;101370.13;;;45.85;2.11
61205;BME280;47068;55.780;37.520;2023-05-09T07:28:21;101350.09;;;45.15;2.00
61205;BME280;47068;55.780;37.520;2023-05-09T07:30:47;101364.13;;;45.86;1.87
61205;BME280;47068;55.780;37.520;2023-05-09T07:33:12;101357.94;;;46.12;1.81
61205;BME280;47068;55.780;37.520;2023-05-09T07:35:38;101345.22;;;46.18;1.96
61205;BME280;47068;55.780;37.520;2023-05-09T07:38:03;101346.75;;;43.10;2.55
61205;BME280;47068;55.780;37.520;2023-05-09T07:40:30;101348.88;;;35.25;5.23
61205;BME280;47068;55.780;37.520;2023-05-09T07:42:57;101347.47;;;29.76;8.41
61205;BME280;47068;55.780;37.520;2023-05-09T07:45:23;101321.44;;;26.31;10.44
61205;BME280;47068;55.780;37.520;2023-05-09T07:47:48;101351.94;;;24.46;12.37
61205;BME280;47068;55.780;37.520;2023-05-09T07:50:14;101359.53;;;22.65;14.29
61205;BME280;47068;55.780;37.520;2023-05-09T07:52:41;101357.81;;;21.39;13.83
61205;BME280;47068;55.780;37.520;2023-05-09T07:55:07;101349.19;;;20.42;14.81
61205;BME280;47068;55.780;37.520;2023-05-09T07:57:32;101353.09;;;20.55;15.17
61205;BME280;47068;55.780;37.520;2023-05-09T07:59:58;101355.34;;;20.51;15.24
61205;BME280;47068;55.780;37.520;2023-05-09T08:02:23;101344.78;;;25.34;11.67
61205;BME280;47068;55.780;37.520;2023-05-09T08:04:49;101327.88;;;29.06;9.69
61205;BME280;47068;55.780;37.520;2023-05-09T08:07:15;101329.16;;;31.40;8.02
61205;BME280;47068;55.780;37.520;2023-05-09T08:09:40;101333.00;;;31.65;7.92
61205;BME280;47068;55.780;37.520;2023-05-09T08:12:06;101323.00;;;29.75;8.61
61205;BME280;47068;55.780;37.520;2023-05-09T08:14:32;101302.94;;;27.64;10.17
61205;BME280;47068;55.780;37.520;2023-05-09T08:16:57;101317.53;;;26.75;11.12
61205;BME280;47068;55.780;37.520;2023-05-09T08:19:23;101317.53;;;26.02;11.30
61205;BME280;47068;55.780;37.520;2023-05-09T08:21:51;101308.50;;;25.34;12.02
61205;BME280;47068;55.780;37.520;2023-05-09T08:24:16;101323.88;;;24.90;12.57
61205;BME280;47068;55.780;37.520;2023-05-09T08:26:41;101310.41;;;23.86;12.65
61205;BME280;47068;55.780;37.520;2023-05-09T08:29:08;101304.16;;;23.13;12.92
61205;BME280;47068;55.780;37.520;2023-05-09T08:31:33;101313.72;;;22.01;14.02
61205;BME280;47068;55.780;37.520;2023-05-09T08:33:59;101305.44;;;21.11;15.78
61205;BME280;47068;55.780;37.520;2023-05-09T08:36:25;101312.41;;;20.63;15.79
61205;BME280;47068;55.780;37.520;2023-05-09T08:38:50;101308.28;;;20.01;16.00
61205;BME280;47068;55.780;37.520;2023-05-09T08:41:16;101286.44;;;19.36;16.19
61205;BME280;47068;55.780;37.520;2023-05-09T08:43:41;101317.53;;;19.09;15.77
61205;BME280;47068;55.780;37.520;2023-05-09T08:46:09;101306.84;;;18.70;16.26
61205;BME280;47068;55.780;37.520;2023-05-09T08:48:35;101305.13;;;18.38;16.15
61205;BME280;47068;55.780;37.520;2023-05-09T08:51:04;101304.03;;;18.17;16.77
61205;BME280;47068;55.780;37.520;2023-05-09T08:53:30;101282.44;;;17.78;17.22
61205;BME280;47068;55.780;37.520;2023-05-09T08:56:00;101302.13;;;17.78;17.97
61205;BME280;47068;55.780;37.520;2023-05-09T08:58:27;101304.50;;;17.81;18.17
61205;BME280;47068;55.780;37.520;2023-05-09T09:00:53;101294.41;;;17.83;18.11
61205;BME280;47068;55.780;37.520;2023-05-09T09:03:20;101299.97;;;17.65;17.66
61205;BME280;47068;55.780;37.520;2023-05-09T09:05:46;101300.97;;;17.64;18.02
61205;BME280;47068;55.780;37.520;2023-05-09T09:08:13;101271.72;;;17.61;18.46
61205;BME280;47068;55.780;37.520;2023-05-09T09:10:40;101285.97;;;17.78;17.74
61205;BME280;47068;55.780;37.520;2023-05-09T09:13:16;101288.88;;;17.77;17.38
61205;BME280;47068;55.780;37.520;2023-05-09T09:15:44;101242.78;;;17.47;18.03
61205;BME280;47068;55.780;37.520;2023-05-09T09:18:21;101285.34;;;17.68;18.10
61205;BME280;47068;55.780;37.520;2023-05-09T09:21:04;101168.38;;;16.83;17.88
61205;BME280;47068;55.780;37.520;2023-05-09T09:23:31;101282.16;;;17.48;17.63
61205;BME280;47068;55.780;37.520;2023-05-09T09:25:58;101291.56;;;17.20;18.40
61205;BME280;47068;55.780;37.520;2023-05-09T09:28:25;101281.16;;;17.01;18.86
61205;BME280;47068;55.780;37.520;2023-05-09T09:30:51;101282.97;;;16.84;19.19
61205;BME280;47068;55.780;37.520;2023-05-09T09:33:20;101280.63;;;16.73;19.17
61205;BME280;47068;55.780;37.520;2023-05-09T09:35:50;101276.38;;;16.62;19.91
61205;BME280;47068;55.780;37.520;2023-05-09T09:38:20;101253.31;;;16.43;19.60
61205;BME280;47068;55.780;37.520;2023-05-09T09:40:56;101272.44;;;16.48;18.22
61205;BME280;47068;55.780;37.520;2023-05-09T09:43:29;101259.72;;;16.08;18.37
61205;BME280;47068;55.780;37.520;2023-05-09T09:45:55;101281.41;;;15.81;18.43
61205;BME280;47068;55.780;37.520;2023-05-09T09:48:45;101269.16;;;15.53;19.03
61205;BME280;47068;55.780;37.520;2023-05-09T09:51:15;101261.16;;;15.61;18.96
61205;BME280;47068;55.780;37.520;2023-05-09T09:53:43;101256.75;;;15.86;19.18
61205;BME280;47068;55.780;37.520;2023-05-09T09:56:09;101251.63;;;16.00;19.26
61205;BME280;47068;55.780;37.520;2023-05-09T09:58:34;101242.84;;;16.24;18.89
61205;BME280;47068;55.780;37.520;2023-05-09T10:01:10;101233.47;;;16.36;17.77
61205;BME280;47068;55.780;37.520;2023-05-09T10:03:42;101259.50;;;16.44;17.27
61205;BME280;47068;55.780;37.520;2023-05-09T10:06:10;101253.50;;;16.08;17.31
61205;BME280;47068;55.780;37.520;2023-05-09T10:08:36;101244.91;;;15.96;18.21
61205;BME280;47068;55.780;37.520;2023-05-09T10:11:02;101248.25;;;15.90;18.50
61205;BME280;47068;55.780;37.520;2023-05-09T10:13:27;101249.91;;;15.91;18.76
61205;BME280;47068;55.780;37.520;2023-05-09T10:15:54;101246.25;;;16.00;19.17
61205;BME280;47068;55.780;37.520;2023-05-09T10:18:25;101232.53;;;16.03;20.02
61205;BME280;47068;55.780;37.520;2023-05-09T10:20:53;101246.50;;;16.15;19.47
61205;BME280;47068;55.780;37.520;2023-05-09T10:23:19;101250.19;;;16.14;19.38
61205;BME280;47068;55.780;37.520;2023-05-09T10:25:53;101243.47;;;16.18;20.26
61205;BME280;47068;55.780;37.520;2023-05-09T10:28:27;101249.69;;;16.19;19.84
61205;BME280;47068;55.780;37.520;2023-05-09T10:31:15;101242.84;;;16.24;19.93
61205;BME280;47068;55.780;37.520;2023-05-09T10:33:47;101247.53;;;16.22;20.01
61205;BME280;47068;55.780;37.520;2023-05-09T10:36:17;101237.28;;;16.18;19.94
61205;BME280;47068;55.780;37.520;2023-05-09T10:38:45;101214.91;;;16.01;20.02
61205;BME280;47068;55.780;37.520;2023-05-09T10:41:12;101236.25;;;16.19;20.11
61205;BME280;47068;55.780;37.520;2023-05-09T10:43:38;101225.03;;;16.23;20.09
61205;BME280;47068;55.780;37.520;2023-05-09T10:46:04;101227.94;;;16.38;20.16
61205;BME280;47068;55.780;37.520;2023-05-09T10:48:32;101218.56;;;16.58;19.44
61205;BME280;47068;55.780;37.520;2023-05-09T10:50:59;101221.66;;;16.79;19.00
61205;BME280;47068;55.780;37.520;2023-05-09T10:53:46;101215.78;;;17.00;18.85
61205;BME280;47068;55.780;37.520;2023-05-09T10:56:27;101213.72;;;17.02;18.56
61205;BME280;47068;55.780;37.520;2023-05-09T10:58:53;101202.13;;;17.02;18.65
61205;BME280;47068;55.780;37.520;2023-05-09T11:01:28;101218.63;;;17.07;18.88
61205;BME280;47068;55.780;37.520;2023-05-09T11:03:57;101217.09;;;17.04;19.10
61205;BME280;47068;55.780;37.520;2023-05-09T11:06:47;101208.03;;;16.89;19.23
61205;BME280;47068;55.780;37.520;2023-05-09T11:09:30;101183.00;;;16.64;18.00
61205;BME280;47068;55.780;37.520;2023-05-09T11:14:43;101196.78;;;16.69;18.13
61205;BME280;47068;55.780;37.520;2023-05-09T11:25:16;101180.88;;;15.42;19.56
61205;BME280;47068;55.780;37.520;2023-05-09T11:27:49;101182.34;;;15.36;19.33
61205;BME280;47068;55.780;37.520;2023-05-09T11:30:18;101180.41;;;15.20;20.03
61205;BME280;47068;55.780;37.520;2023-05-09T11:32:53;101187.56;;;15.12;19.98
61205;BME280;47068;55.780;37.520;2023-05-09T11:35:21;101180.06;;;14.97;19.87
61205;BME280;47068;55.780;37.520;2023-05-09T11:38:05;101174.50;;;14.73;19.79
61205;BME280;47068;55.780;37.520;2023-05-09T11:40:32;101161.38;;;14.62;19.64
61205;BME280;47068;55.780;37.520;2023-05-09T11:42:59;101153.03;;;14.47;20.27
61205;BME280;47068;55.780;37.520;2023-05-09T11:45:27;101173.16;;;14.69;20.26
61205;BME280;47068;55.780;37.520;2023-05-09T11:47:54;101165.06;;;14.87;20.93
61205;BME280;47068;55.780;37.520;2023-05-09T11:50:21;101170.09;;;15.08;19.88
61205;BME280;47068;55.780;37.520;2023-05-09T11:52:47;101168.78;;;15.12;19.42
61205;BME280;47068;55.780;37.520;2023-05-09T11:55:16;101155.25;;;15.13;19.71
61205;BME280;47068;55.780;37.520;2023-05-09T11:57:52;101159.00;;;15.28;19.57
61205;BME280;47068;55.780;37.520;2023-05-09T12:00:20;101135.09;;;15.09;19.06
61205;BME280;47068;55.780;37.520;2023-05-09T12:02:46;101158.69;;;15.06;19.14
61205;BME280;47068;55.780;37.520;2023-05-09T12:05:14;101154.91;;;14.90;19.07
61205;BME280;47068;55.780;37.520;2023-05-09T12:07:41;101149.25;;;14.93;19.79
61205;BME280;47068;55.780;37.520;2023-05-09T12:10:11;101146.06;;;15.24;19.75
61205;BME280;47068;55.780;37.520;2023-05-09T12:12:42;101142.13;;;15.62;19.70
61205;BME280;47068;55.780;37.520;2023-05-09T12:15:09;101134.31;;;15.93;19.56
61205;BME280;47068;55.780;37.520;2023-05-09T12:17:34;101133.56;;;16.17;19.37
61205;BME280;47068;55.780;37.520;2023-05-09T12:20:00;101045.25;;;15.89;19.42
61205;BME280;47068;55.780;37.520;2023-05-09T12:22:29;101121.00;;;16.49;19.47
61205;BME280;47068;55.780;37.520;2023-05-09T12:24:55;101124.84;;;16.55;18.69
61205;BME280;47068;55.780;37.520;2023-05-09T12:27:21;101121.19;;;16.64;18.91
61205;BME280;47068;55.780;37.520;2023-05-09T12:29:47;101119.31;;;16.89;18.55
61205;BME280;47068;55.780;37.520;2023-05-09T12:32:14;101105.69;;;16.99;18.05
61205;BME280;47068;55.780;37.520;2023-05-09T12:34:41;101116.91;;;17.10;18.18
61205;BME280;47068;55.780;37.520;2023-05-09T12:37:15;101112.22;;;17.04;17.87
61205;BME280;47068;55.780;37.520;2023-05-09T12:39:43;101105.88;;;16.97;18.18
61205;BME280;47068;55.780;37.520;2023-05-09T12:42:12;101110.72;;;17.02;18.43
61205;BME280;47068;55.780;37.520;2023-05-09T12:44:38;101094.13;;;16.90;17.96
61205;BME280;47068;55.780;37.520;2023-05-09T12:47:03;101101.19;;;16.83;18.15
61205;BME280;47068;55.780;37.520;2023-05-09T12:49:30;101104.72;;;16.59;18.39
61205;BME280;47068;55.780;37.520;2023-05-09T12:51:58;101094.97;;;16.42;18.46
61205;BME280;47068;55.780;37.520;2023-05-09T12:54:28;101088.56;;;16.19;18.55
61205;BME280;47068;55.780;37.520;2023-05-09T12:56:57;101089.34;;;15.87;19.30
61205;BME280;47068;55.780;37.520;2023-05-09T12:59:24;101088.91;;;15.57;19.84
61205;BME280;47068;55.780;37.520;2023-05-09T13:01:58;101081.47;;;15.43;19.69
61205;BME280;47068;55.780;37.520;2023-05-09T13:04:25;101089.50;;;15.35;19.85
61205;BME280;47068;55.780;37.520;2023-05-09T13:06:54;101091.69;;;15.40;20.43
61205;BME280;47068;55.780;37.520;2023-05-09T13:09:21;101064.47;;;15.26;20.02